Time;durP1;ratioP1;P1;durP2;ratioP2;P2;SDS_P1;SDS_P2;PMS_P1;PMS_P2;Temp;Humidity;BMP_temperature;BMP_pressure;BME280_temperature;BME280_humidity;BME280_pressure;Samples;Min_cycle;Max_cycle;Signal;HPM_P1;HPM_P2
2021/04/05 00:01:40;;;;;;;32.22;17.77;;;;;;;9.41;52.25;101178.88;4879422;28;123274;-66
2021/04/05 00:04:08;;;;;;;32.65;16.67;;;;;;;9.44;51.93;101181.44;4880788;28;123492;-66
2021/04/05 00:06:35;;;;;;;28.65;17.83;;;;;;;9.45;51.87;101169.91;4891590;28;113362;-66
2021/04/05 00:09:02;;;;;;;28.80;16.00;;;;;;;9.48;51.87;101164.53;4913241;28;114026;-66
2021/04/05 00:11:28;;;;;;;27.20;16.42;;;;;;;9.50;52.12;101156.56;4912867;28;123770;-66
2021/04/05 00:13:55;;;;;;;28.80;16.58;;;;;;;9.52;51.83;101157.34;4912294;28;123731;-66
2021/04/05 00:16:22;;;;;;;29.73;16.60;;;;;;;9.52;52.32;101144.13;4881849;28;115469;-66
2021/04/05 00:18:48;;;;;;;30.50;16.27;;;;;;;9.53;51.82;101141.44;4881943;28;114545;-66
2021/04/05 00:21:20;;;;;;;29.75;16.20;;;;;;;9.57;51.99;101136.03;4912488;28;124892;-66
2021/04/05 00:23:51;;;;;;;25.90;15.60;;;;;;;9.57;52.02;101120.16;4881080;28;124051;-66
2021/04/05 00:26:19;;;;;;;27.27;15.85;;;;;;;9.58;51.90;101124.53;4911921;28;114508;-66
2021/04/05 00:28:46;;;;;;;28.98;16.58;;;;;;;9.58;52.04;101116.63;4895041;28;114314;-66
2021/04/05 00:31:13;;;;;;;26.20;15.80;;;;;;;9.60;52.00;101114.78;4909812;28;124199;-66
2021/04/05 00:33:39;;;;;;;30.55;15.35;;;;;;;9.61;51.92;101111.22;4885153;28;123199;-68
2021/04/05 00:36:07;;;;;;;29.20;15.77;;;;;;;9.61;51.70;101095.34;4881928;28;114786;-66
2021/04/05 00:38:33;;;;;;;31.90;15.50;;;;;;;9.61;51.99;101090.94;4894800;28;116186;-66
2021/04/05 00:41:07;;;;;;;27.77;16.42;;;;;;;9.61;51.89;101084.78;4911779;28;124914;-66
2021/04/05 00:43:35;;;;;;;24.85;15.77;;;;;;;9.62;52.25;101081.19;4911759;28;124968;-66
2021/04/05 00:46:03;;;;;;;30.75;16.23;;;;;;;9.62;52.18;101070.63;4877179;28;113605;-66
2021/04/05 00:48:31;;;;;;;31.88;16.30;;;;;;;9.62;51.95;101071.47;4912282;28;112715;-66
2021/04/05 00:51:04;;;;;;;28.15;16.25;;;;;;;9.63;52.16;101077.66;4881608;28;123205;-66
2021/04/05 00:53:38;;;;;;;31.35;16.35;;;;;;;9.64;52.34;101074.06;4911482;28;123678;-66
2021/04/05 00:56:06;;;;;;;28.77;15.75;;;;;;;9.66;51.94;101059.00;4907291;28;114936;-65
2021/04/05 00:58:33;;;;;;;33.60;15.43;;;;;;;9.66;52.05;101051.06;4912598;28;114013;-66
2021/04/05 01:01:05;;;;;;;29.05;15.35;;;;;;;9.66;51.98;101040.50;4880877;28;124073;-66
2021/04/05 01:03:34;;;;;;;26.38;15.63;;;;;;;9.67;52.00;101036.94;4910686;28;123978;-66
2021/04/05 01:06:05;;;;;;;34.58;15.70;;;;;;;9.67;51.90;101037.78;4910817;28;114516;-66
2021/04/05 01:08:31;;;;;;;29.92;15.50;;;;;;;9.68;51.92;101030.72;4880802;28;114451;-66
2021/04/05 01:10:59;;;;;;;32.00;15.65;;;;;;;9.68;51.90;101028.06;4911828;28;124975;-66
2021/04/05 01:13:25;;;;;;;25.25;15.43;;;;;;;9.69;51.93;101019.22;4894529;28;124691;-65
2021/04/05 01:15:52;;;;;;;27.23;15.80;;;;;;;9.68;52.02;101018.38;4910287;28;114318;-66
2021/04/05 01:18:20;;;;;;;30.02;15.80;;;;;;;9.69;51.99;101008.66;4880382;28;114418;-66
2021/04/05 01:20:47;;;;;;;29.25;14.95;;;;;;;9.68;51.80;100998.97;4879601;28;123344;-66
2021/04/05 01:23:17;;;;;;;28.15;15.40;;;;;;;9.67;51.84;100989.34;4881536;28;123815;-66
2021/04/05 01:25:45;;;;;;;30.52;15.88;;;;;;;9.66;52.15;100977.03;4910989;28;114968;-66
2021/04/05 01:28:12;;;;;;;31.15;15.70;;;;;;;9.66;51.89;100998.19;4894718;28;114768;-66
2021/04/05 01:30:45;;;;;;;26.63;15.30;;;;;;;9.65;51.91;100985.91;4878089;28;123569;-66
2021/04/05 01:33:16;;;;;;;30.20;15.07;;;;;;;9.65;52.11;100991.19;4885917;28;123931;-66
2021/04/05 01:35:44;;;;;;;26.55;15.60;;;;;;;9.65;52.18;100975.31;4894812;28;114236;-66
2021/04/05 01:38:14;;;;;;;33.30;16.25;;;;;;;9.64;52.08;100969.16;4911694;28;114347;-66
2021/04/05 01:40:44;;;;;;;30.70;15.63;;;;;;;9.64;52.06;100973.56;4910810;28;124231;-66
2021/04/05 01:43:12;;;;;;;27.23;15.75;;;;;;;9.64;51.96;100968.28;4876172;28;123785;-66
2021/04/05 01:45:41;;;;;;;29.20;15.00;;;;;;;9.62;52.35;100964.84;4877881;28;113231;-65
2021/04/05 01:48:09;;;;;;;32.45;15.57;;;;;;;9.61;52.24;100963.16;4911759;28;113982;-66
2021/04/05 01:50:37;;;;;;;25.83;14.90;;;;;;;9.60;52.25;100959.63;4911112;28;124323;-66
2021/04/05 01:53:05;;;;;;;26.23;14.57;;;;;;;9.62;51.99;100948.97;4879846;28;123509;-66
2021/04/05 01:55:33;;;;;;;32.42;15.55;;;;;;;9.61;52.21;100942.00;4910001;28;115302;-66
2021/04/05 01:58:01;;;;;;;25.65;15.68;;;;;;;9.63;52.27;100924.28;4910917;28;115199;-66
2021/04/05 02:00:31;;;;;;;29.90;15.25;;;;;;;9.63;52.06;100911.06;4894115;28;122950;-66
2021/04/05 02:03:04;;;;;;;28.05;15.20;;;;;;;9.63;52.28;100911.06;4894547;28;125009;-66
2021/04/05 02:05:31;;;;;;;31.67;15.13;;;;;;;9.63;52.31;100919.00;4908823;28;113583;-66
2021/04/05 02:08:05;;;;;;;30.27;15.30;;;;;;;9.64;52.21;100915.41;4908261;28;113657;-66
2021/04/05 02:10:32;;;;;;;35.00;15.55;;;;;;;9.64;52.56;100905.69;4910748;28;124235;-66
2021/04/05 02:13:00;;;;;;;30.05;14.98;;;;;;;9.66;52.48;100913.56;4911160;28;123739;-66
2021/04/05 02:15:27;;;;;;;32.53;15.60;;;;;;;9.67;52.65;100904.72;4910297;28;114461;-66
2021/04/05 02:17:54;;;;;;;26.90;15.15;;;;;;;9.68;52.43;100906.41;4911395;28;113942;-66
2021/04/05 02:20:21;;;;;;;30.67;15.27;;;;;;;9.68;52.54;100917.00;4910237;28;124735;-66
2021/04/05 02:22:50;;;;;;;33.53;15.25;;;;;;;9.70;52.11;100901.94;4910927;28;123943;-66
2021/04/05 02:25:19;;;;;;;32.90;15.85;;;;;;;9.72;52.59;100908.03;4891295;28;113838;-66
2021/04/05 02:27:48;;;;;;;26.90;15.38;;;;;;;9.74;52.42;100890.31;4879583;28;113939;-66
2021/04/05 02:30:23;;;;;;;32.97;15.40;;;;;;;9.77;52.61;100884.88;4910545;28;123795;-66
2021/04/05 02:33:05;;;;;;;31.92;15.77;;;;;;;9.79;52.37;100885.69;4906679;28;123183;-66
2021/04/05 02:35:33;;;;;;;30.67;14.93;;;;;;;9.81;52.47;100881.19;4908726;28;114515;-66
2021/04/05 02:38:02;;;;;;;29.27;14.70;;;;;;;9.83;52.51;100875.84;4910326;28;114002;-66
2021/04/05 02:40:29;;;;;;;30.10;15.32;;;;;;;9.85;52.56;100876.63;4878714;28;123143;-66
2021/04/05 02:42:57;;;;;;;28.45;14.57;;;;;;;9.86;52.46;100868.66;4881840;28;124578;-66
2021/04/05 02:45:26;;;;;;;28.52;15.15;;;;;;;9.86;52.38;100866.00;4891418;28;115408;-66
2021/04/05 02:47:56;;;;;;;28.83;14.40;;;;;;;9.88;52.53;100864.16;4911058;28;115323;-66
2021/04/05 02:50:29;;;;;;;35.63;15.02;;;;;;;9.90;52.46;100854.34;4879362;28;122925;-66
2021/04/05 02:52:58;;;;;;;30.52;15.05;;;;;;;9.91;52.84;100850.81;4880434;28;123687;-66
2021/04/05 02:55:25;;;;;;;30.80;14.80;;;;;;;9.93;52.49;100848.94;4878250;28;113305;-66
2021/04/05 02:57:52;;;;;;;32.03;14.93;;;;;;;9.94;52.72;100833.94;4893921;28;114308;-65
2021/04/05 03:00:20;;;;;;;31.83;15.07;;;;;;;9.96;52.62;100836.50;4912670;28;123060;-65
2021/04/05 03:02:49;;;;;;;28.05;15.15;;;;;;;9.96;52.57;100833.88;4913451;28;124061;-66
2021/04/05 03:05:18;;;;;;;35.63;15.38;;;;;;;9.97;52.95;100827.66;4908854;28;114445;-66
2021/04/05 03:07:45;;;;;;;31.52;15.15;;;;;;;9.96;52.60;100825.94;4877693;28;113279;-66
2021/04/05 03:10:13;;;;;;;27.80;14.73;;;;;;;9.96;52.90;100820.63;4909659;28;124198;-66
2021/04/05 03:12:42;;;;;;;29.30;15.13;;;;;;;9.94;52.92;100824.22;4910516;28;123908;-66
2021/04/05 03:15:11;;;;;;;31.75;15.57;;;;;;;9.92;52.80;100799.59;4909376;28;114059;-66
2021/04/05 03:17:40;;;;;;;29.15;14.85;;;;;;;9.90;53.03;100788.22;4866004;28;113775;-65
2021/04/05 03:20:28;;;;;;;41.72;15.45;;;;;;;9.88;52.71;100798.00;4908526;28;124289;-66
2021/04/05 03:22:55;;;;;;;25.83;14.65;;;;;;;9.86;52.87;100794.56;4874317;28;124123;-66
2021/04/05 03:25:23;;;;;;;31.80;17.88;;;;;;;9.85;52.94;100779.66;4874704;28;113231;-66
2021/04/05 03:27:51;;;;;;;37.53;15.00;;;;;;;9.84;53.28;100780.56;4909884;28;114194;-66
2021/04/05 03:30:52;;;;;;;30.98;15.02;;;;;;;9.79;52.88;100765.81;4910010;28;124797;-66
2021/04/05 03:33:25;;;;;;;35.05;15.15;;;;;;;9.78;52.79;100770.25;4895666;28;124693;-65
2021/04/05 03:35:58;;;;;;;31.67;15.60;;;;;;;9.76;53.21;100761.53;4921032;23;115091;-73
2021/04/05 03:38:24;;;;;;;31.90;14.88;;;;;;;9.75;53.36;100765.06;4898018;28;113939;-72
2021/04/05 03:40:55;;;;;;;34.25;15.35;;;;;;;9.72;53.41;100757.28;4882818;28;124403;-75
2021/04/05 03:43:22;;;;;;;33.55;15.30;;;;;;;9.70;53.54;100746.78;4897735;28;123767;-76
2021/04/05 03:45:59;;;;;;;37.55;15.52;;;;;;;9.67;53.71;100740.75;4899214;28;114358;-75
2021/04/05 03:48:46;;;;;;;36.30;15.30;;;;;;;9.66;53.65;100733.72;4894716;28;114758;-75
2021/04/05 03:51:22;;;;;;;33.92;15.30;;;;;;;9.65;53.68;100737.31;4893638;28;123893;-75
2021/04/05 03:54:01;;;;;;;33.85;16.05;;;;;;;9.64;53.74;100725.00;4893258;28;124595;-75
2021/04/05 03:56:40;;;;;;;29.67;15.13;;;;;;;9.63;54.15;100723.31;4891750;28;113867;-75
2021/04/05 03:59:14;;;;;;;36.70;16.25;;;;;;;9.66;54.15;100715.22;4881397;28;111852;-76
2021/04/05 04:01:52;;;;;;;34.67;16.23;;;;;;;9.65;54.40;100700.31;4894286;28;123761;-75
2021/04/05 04:04:29;;;;;;;41.78;16.20;;;;;;;9.67;54.51;100701.09;4875299;28;124645;-76
2021/04/05 04:07:24;;;;;;;39.65;16.45;;;;;;;9.69;54.47;100701.88;4868855;28;113566;-75
2021/04/05 04:09:54;;;;;;;35.80;16.05;;;;;;;9.70;54.42;100693.00;4891642;28;114208;-75
2021/04/05 04:12:22;;;;;;;29.60;16.17;;;;;;;9.71;54.39;100684.16;4894911;28;124229;-75
2021/04/05 04:14:50;;;;;;;31.55;16.50;;;;;;;9.75;54.78;100691.03;4894066;28;123165;-75
2021/04/05 04:17:19;;;;;;;37.25;16.90;;;;;;;9.79;54.97;100689.97;4896662;28;114037;-75
2021/04/05 04:19:46;;;;;;;33.72;16.90;;;;;;;9.81;54.82;100685.44;4895060;28;113913;-75
2021/04/05 04:22:13;;;;;;;35.40;15.70;;;;;;;9.85;55.01;100686.19;4896194;28;124789;-75
2021/04/05 04:24:41;;;;;;;36.58;16.70;;;;;;;9.86;54.86;100683.47;4876513;28;124101;-76
2021/04/05 04:27:07;;;;;;;38.47;16.60;;;;;;;9.89;54.97;100678.06;4892908;28;115385;-75
2021/04/05 04:29:34;;;;;;;35.55;17.40;;;;;;;9.92;54.96;100672.59;4894254;28;115280;-75
2021/04/05 04:32:01;;;;;;;32.38;16.27;;;;;;;9.93;55.11;100671.69;4877113;28;124117;-73
2021/04/05 04:34:28;;;;;;;36.28;17.52;;;;;;;9.98;55.15;100670.63;4894826;28;124772;-73
2021/04/05 04:37:01;;;;;;;37.15;17.25;;;;;;;9.99;55.32;100669.72;4892403;28;113442;-73
2021/04/05 04:39:29;;;;;;;34.63;17.38;;;;;;;10.00;55.30;100659.06;4875432;28;113758;-73
2021/04/05 04:41:55;;;;;;;34.00;17.20;;;;;;;10.02;55.11;100662.50;4895466;28;123838;-73
2021/04/05 04:44:22;;;;;;;37.33;17.15;;;;;;;10.05;55.39;100645.59;4893169;28;123762;-74
2021/04/05 04:46:49;;;;;;;40.90;16.80;;;;;;;10.05;55.52;100640.31;4879540;28;113497;-75
2021/04/05 04:49:15;;;;;;;34.65;16.50;;;;;;;10.07;55.44;100649.88;4892411;28;114177;-75
2021/04/05 04:51:42;;;;;;;34.85;17.35;;;;;;;10.09;55.63;100636.59;4890594;28;124776;-75
2021/04/05 04:54:10;;;;;;;41.10;17.23;;;;;;;10.11;55.50;100638.25;4895412;28;123970;-75
2021/04/05 04:56:38;;;;;;;36.25;18.33;;;;;;;10.13;55.64;100636.41;4877229;28;113532;-76
2021/04/05 04:59:07;;;;;;;44.65;18.60;;;;;;;10.15;55.33;100631.00;4892780;28;113148;-75
2021/04/05 05:01:37;;;;;;;35.83;17.77;;;;;;;10.17;55.77;100618.59;4876880;28;123726;-75
2021/04/05 05:04:27;;;;;;;42.45;18.40;;;;;;;10.17;55.58;100610.66;4893073;28;124632;-75
2021/04/05 05:06:59;;;;;;;41.78;18.63;;;;;;;10.20;55.67;100617.56;4892150;28;114678;-75
2021/04/05 05:09:27;;;;;;;38.97;19.17;;;;;;;10.22;55.71;100607.78;4875647;28;113876;-76
2021/04/05 05:11:55;;;;;;;42.30;19.05;;;;;;;10.24;55.61;100598.81;4860681;28;125587;-76
2021/04/05 05:14:22;;;;;;;37.10;19.00;;;;;;;10.27;55.62;100598.69;4888917;28;123014;-75
2021/04/05 05:16:50;;;;;;;43.80;19.15;;;;;;;10.28;55.96;100594.25;4891578;28;115723;-76
2021/04/05 05:19:17;;;;;;;38.08;18.98;;;;;;;10.30;55.99;100587.06;4895581;28;114886;-75
2021/04/05 05:21:50;;;;;;;40.65;19.65;;;;;;;10.32;56.11;100591.41;4889992;28;124319;-75
2021/04/05 05:24:20;;;;;;;43.33;18.50;;;;;;;10.36;56.11;100585.97;4891985;28;123906;-75
2021/04/05 05:26:49;;;;;;;40.33;19.38;;;;;;;10.39;56.50;100580.53;4875800;28;114417;-75
2021/04/05 05:29:18;;;;;;;44.85;19.25;;;;;;;10.42;55.95;100575.09;4880181;28;113588;-76
2021/04/05 05:31:45;;;;;;;42.55;18.90;;;;;;;10.44;56.23;100573.22;4892672;28;125190;-75
2021/04/05 05:34:14;;;;;;;39.90;18.48;;;;;;;10.45;56.17;100569.63;4892229;28;124341;-75
2021/04/05 05:36:43;;;;;;;44.53;19.85;;;;;;;10.48;56.52;100570.34;4889583;28;114525;-76
2021/04/05 05:39:11;;;;;;;44.92;19.27;;;;;;;10.50;56.18;100562.31;4890492;28;113539;-75
2021/04/05 05:42:09;;;;;;;41.72;19.38;;;;;;;10.52;56.47;100571.91;4894595;28;124625;-76
2021/04/05 05:45:02;;;;;;;42.58;18.70;;;;;;;10.55;56.17;100562.97;4891446;28;124050;-76
2021/04/05 05:47:53;;;;;;;39.00;18.20;;;;;;;10.56;56.51;100562.00;4890390;28;114519;-76
2021/04/05 05:50:31;;;;;;;41.45;18.13;;;;;;;10.57;56.64;100547.84;4877107;28;112596;-75
2021/04/05 05:53:16;;;;;;;38.33;17.95;;;;;;;10.60;56.34;100547.69;4893526;28;124742;-75
2021/04/05 05:56:20;;;;;;;34.50;17.98;;;;;;;10.64;56.55;100548.38;4890684;28;123632;-75
2021/04/05 05:59:01;;;;;;;33.63;17.58;;;;;;;10.67;56.48;100538.50;4895212;28;113957;-75
2021/04/05 06:02:06;;;;;;;42.55;17.13;;;;;;;10.73;56.38;100531.19;4893730;28;114504;-75
2021/04/05 06:04:49;;;;;;;38.08;17.15;;;;;;;10.77;56.78;100530.09;4892406;28;123936;-75
2021/04/05 06:07:30;;;;;;;36.88;17.38;;;;;;;10.83;56.76;100527.13;4892511;28;124156;-75
2021/04/05 06:10:39;;;;;;;38.25;17.55;;;;;;;10.86;56.17;100521.69;4875968;28;115212;-75
2021/04/05 06:13:51;;;;;;;39.08;17.13;;;;;;;10.90;56.48;100512.63;4833829;28;113977;-75
2021/04/05 06:16:35;;;;;;;35.70;16.65;;;;;;;10.94;56.35;100524.78;4841803;28;124180;-75
2021/04/05 06:19:20;;;;;;;33.42;16.42;;;;;;;10.96;56.47;100527.34;4888163;28;123549;-75
2021/04/05 06:21:58;;;;;;;37.15;16.98;;;;;;;10.98;56.52;100526.34;4892734;28;113199;-75
2021/04/05 06:25:08;;;;;;;34.72;17.38;;;;;;;11.01;56.66;100541.22;4874671;28;113900;-75
2021/04/05 06:28:01;;;;;;;36.17;17.60;;;;;;;11.02;56.50;100625.97;4892868;28;124843;-75
2021/04/05 06:30:45;;;;;;;7.47;4.03;;;;;;;10.94;55.51;100625.47;4889391;28;123928;-75
2021/04/05 06:33:20;;;;;;;6.68;1.75;;;;;;;10.77;55.27;100622.81;4891152;28;113836;-75
2021/04/05 06:36:01;;;;;;;9.38;3.13;;;;;;;10.53;55.35;100633.69;4891351;28;113803;-75
2021/04/05 06:38:31;;;;;;;6.13;2.08;;;;;;;10.35;55.14;100630.13;4890434;28;124399;-75
2021/04/05 06:41:26;;;;;;;4.85;1.90;;;;;;;10.17;55.70;100634.47;4877744;28;124256;-77
2021/04/05 06:44:22;;;;;;;4.13;1.90;;;;;;;9.99;55.65;100635.31;4838159;28;114099;-76
2021/04/05 06:47:10;;;;;;;7.35;1.67;;;;;;;9.84;56.05;100632.44;4891518;28;114159;-77
2021/04/05 06:49:43;;;;;;;5.35;1.52;;;;;;;9.72;56.38;100643.56;4891264;28;123690;-76
2021/04/05 06:52:31;;;;;;;4.65;1.38;;;;;;;9.63;56.40;100641.34;4889806;28;123128;-76
2021/04/05 06:55:02;;;;;;;7.72;1.95;;;;;;;9.55;56.49;100631.97;4892444;28;113772;-76
2021/04/05 06:57:55;;;;;;;4.47;1.30;;;;;;;9.47;56.82;100639.34;4890962;28;115082;-77
2021/04/05 07:00:28;;;;;;;5.55;1.73;;;;;;;9.43;56.81;100627.19;4858599;28;123243;-76
2021/04/05 07:03:14;;;;;;;5.47;1.65;;;;;;;9.36;56.90;100636.31;4889115;28;123784;-77
2021/04/05 07:06:00;;;;;;;;;;;;;;;9.31;56.13;100643.59;4889032;28;114602;-76
2021/04/05 07:08:34;;;;;;;5.60;1.55;;;;;;;9.26;56.87;100650.84;4889128;28;113651;-77
2021/04/05 07:11:26;;;;;;;7.00;1.80;;;;;;;9.16;56.91;100653.88;4889513;28;123381;-76
2021/04/05 07:14:17;;;;;;;7.82;1.90;;;;;;;9.12;57.29;100662.88;4894408;28;123654;-77
2021/04/05 07:16:54;;;;;;;6.93;1.70;;;;;;;9.09;57.55;100660.34;4877430;28;113913;-77
2021/04/05 07:19:34;;;;;;;10.52;1.80;;;;;;;9.06;57.21;100659.63;4893203;28;112820;-77
2021/04/05 07:22:30;;;;;;;9.07;1.80;;;;;;;9.02;57.54;100658.88;4861757;28;123599;-77
2021/04/05 07:25:08;;;;;;;12.77;1.98;;;;;;;9.01;57.34;100662.47;4894478;28;124030;-77
2021/04/05 07:27:57;;;;;;;7.57;2.10;;;;;;;9.00;57.27;100665.16;4894314;28;114281;-77
2021/04/05 07:30:54;;;;;;;8.73;1.77;;;;;;;8.98;57.29;100667.84;4876318;28;113648;-77
2021/04/05 07:33:44;;;;;;;10.10;1.70;;;;;;;8.95;56.87;100662.72;4860494;28;123653;-77
2021/04/05 07:36:56;;;;;;;8.05;2.10;;;;;;;8.94;57.15;100661.00;4892923;28;123402;-77
2021/04/05 07:39:32;;;;;;;8.70;2.10;;;;;;;8.94;57.24;100676.84;4833643;29;113551;-75
2021/04/05 07:42:29;;;;;;;6.60;1.75;;;;;;;8.90;57.26;100675.25;4889493;28;112921;-75
2021/04/05 07:45:08;;;;;;;8.55;1.83;;;;;;;8.87;57.21;100693.84;4890320;28;124507;-73
2021/04/05 07:47:59;;;;;;;4.45;1.10;;;;;;;8.82;56.91;100714.31;4892883;28;123759;-76
2021/04/05 07:50:38;;;;;;;6.80;1.30;;;;;;;8.71;56.85;100720.88;4891490;28;114023;-74
2021/04/05 07:53:17;;;;;;;8.20;1.40;;;;;;;8.63;56.95;100730.88;4893224;28;114802;-74
2021/04/05 07:55:46;;;;;;;5.22;1.17;;;;;;;8.57;56.46;100741.69;4891986;28;123081;-74
2021/04/05 07:58:48;;;;;;;6.40;1.30;;;;;;;8.49;56.61;100771.00;4890478;28;124029;-74
2021/04/05 08:01:25;;;;;;;3.75;1.05;;;;;;;8.42;56.48;100763.34;4892774;28;115253;-75
2021/04/05 08:04:21;;;;;;;4.45;1.30;;;;;;;8.32;56.67;100763.66;4859793;28;114114;-75
2021/04/05 08:07:08;;;;;;;7.53;1.33;;;;;;;8.19;56.24;100775.59;4892875;28;124664;-74
2021/04/05 08:09:50;;;;;;;6.55;1.52;;;;;;;8.12;56.72;100782.03;4894909;28;124417;-74
2021/04/05 08:13:10;;;;;;;10.82;1.90;;;;;;;8.05;56.71;100785.78;4894908;28;114165;-75
2021/04/05 08:15:51;;;;;;;12.30;2.05;;;;;;;7.98;56.58;100796.53;4852125;29;114307;-74
2021/04/05 08:18:25;;;;;;;12.60;2.05;;;;;;;7.94;56.40;100805.47;4891948;28;124627;-75
2021/04/05 08:21:10;;;;;;;12.57;2.33;;;;;;;7.89;56.24;100802.16;4874960;28;123176;-74
2021/04/05 08:23:48;;;;;;;14.40;2.67;;;;;;;7.84;56.40;100814.63;4889554;28;114290;-75
2021/04/05 08:26:47;;;;;;;14.60;2.20;;;;;;;7.74;56.38;100834.28;4892489;28;113762;-76
2021/04/05 08:29:17;;;;;;;9.90;2.03;;;;;;;7.65;55.96;100845.13;4891090;28;123252;-75
2021/04/05 08:32:04;;;;;;;8.40;1.98;;;;;;;7.55;55.96;100850.75;4875188;28;123729;-78
2021/04/05 08:35:15;;;;;;;9.65;1.77;;;;;;;7.47;55.54;100879.09;4890927;28;114428;-76
2021/04/05 08:37:59;;;;;;;11.57;2.17;;;;;;;7.40;55.38;100877.56;4877514;28;113283;-76
2021/04/05 08:40:51;;;;;;;12.50;2.13;;;;;;;7.32;55.57;100884.84;4872257;28;124121;-76
2021/04/05 08:43:46;;;;;;;12.70;2.25;;;;;;;7.28;55.20;100862.16;4890880;28;123970;-73
2021/04/05 08:46:18;;;;;;;7.38;2.05;;;;;;;7.27;55.44;100870.94;4889441;28;114730;-76
2021/04/05 08:48:52;;;;;;;11.27;2.10;;;;;;;7.26;55.52;100879.78;4892365;28;113553;-76
2021/04/05 08:51:32;;;;;;;11.45;2.47;;;;;;;7.29;55.43;100874.38;4891805;28;124253;-76
2021/04/05 08:54:02;;;;;;;15.65;2.35;;;;;;;7.32;55.57;100879.56;4873560;28;123531;-76
2021/04/05 08:56:34;;;;;;;18.27;2.90;;;;;;;7.34;55.36;100877.75;4890865;28;113429;-76
2021/04/05 08:59:06;;;;;;;13.98;2.40;;;;;;;7.36;55.59;100875.94;4893632;28;114961;-74
2021/04/05 09:01:42;;;;;;;14.65;2.50;;;;;;;7.40;55.24;100872.28;4889299;28;124005;-75
2021/04/05 09:04:10;;;;;;;16.08;2.75;;;;;;;7.47;55.95;100884.38;4874599;28;123777;-75
2021/04/05 09:06:45;;;;;;;11.93;2.83;;;;;;;7.55;55.92;100882.38;4893168;28;115382;-75
2021/04/05 09:09:15;;;;;;;11.60;2.47;;;;;;;7.66;55.77;100878.50;4877051;28;114183;-76
2021/04/05 09:11:42;;;;;;;17.15;2.88;;;;;;;7.73;55.24;100880.03;4892635;28;123222;-75
2021/04/05 09:14:13;;;;;;;10.23;2.28;;;;;;;7.81;55.36;100883.28;4859956;28;123367;-75
2021/04/05 09:16:40;;;;;;;13.10;2.72;;;;;;;7.93;55.46;100898.72;4889242;28;113984;-75
2021/04/05 09:19:27;;;;;;;9.77;1.92;;;;;;;8.03;54.47;100893.97;4890491;28;114440;-76
2021/04/05 09:22:12;;;;;;;9.15;1.88;;;;;;;8.08;54.13;100896.44;4891724;28;123085;-76
2021/04/05 09:24:48;;;;;;;10.73;2.03;;;;;;;8.12;54.04;100908.66;4874586;28;124241;-76
2021/04/05 09:27:38;;;;;;;11.05;2.17;;;;;;;8.18;53.89;100904.00;4877156;28;96874;-75
2021/04/05 09:30:30;;;;;;;8.57;1.83;;;;;;;8.25;53.84;100909.94;4892636;28;114327;-74
2021/04/05 09:33:33;;;;;;;9.35;2.17;;;;;;;8.30;53.64;100908.00;4873482;28;122165;-74
2021/04/05 09:36:23;;;;;;;10.10;2.75;;;;;;;8.32;53.36;100900.88;4906572;23;123981;-75
2021/04/05 09:39:06;;;;;;;10.32;2.13;;;;;;;8.36;53.30;100907.81;4874381;28;111821;-74
2021/04/05 09:41:52;;;;;;;8.82;2.53;;;;;;;8.42;53.71;100911.16;4871317;28;114307;-74
2021/04/05 09:44:56;;;;;;;10.32;2.30;;;;;;;8.47;53.40;100914.50;4858709;28;123711;-72
2021/04/05 09:48:01;;;;;;;14.65;2.83;;;;;;;8.54;53.55;100916.00;4878440;28;124129;-73
2021/04/05 09:51:05;;;;;;;8.60;2.25;;;;;;;8.58;53.40;100918.47;4868029;28;114455;-73
2021/04/05 09:53:31;;;;;;;7.78;2.20;;;;;;;8.62;53.06;100935.06;4879144;28;113928;-72
2021/04/05 09:56:04;;;;;;;7.85;2.03;;;;;;;8.62;52.64;100972.03;4883935;28;124359;-74
2021/04/05 09:58:51;;;;;;;3.55;0.95;;;;;;;8.55;52.09;100996.91;4880270;28;123077;-74
2021/04/05 10:01:23;;;;;;;4.75;0.90;;;;;;;8.29;51.88;101006.56;4879529;28;115312;-72
2021/04/05 10:03:55;;;;;;;3.85;0.80;;;;;;;7.99;51.63;100993.44;4877493;28;113170;-73
2021/04/05 10:06:26;;;;;;;4.07;0.82;;;;;;;7.75;51.78;100988.94;4874223;28;124047;-74
2021/04/05 10:08:57;;;;;;;3.92;1.20;;;;;;;7.55;52.49;100994.81;4868992;28;123098;-73
2021/04/05 10:11:28;;;;;;;3.97;0.98;;;;;;;7.40;52.66;100982.94;4878114;28;113636;-74
2021/04/05 10:14:02;;;;;;;4.88;1.10;;;;;;;7.35;53.40;100987.50;4878714;28;114323;-73
2021/04/05 10:16:31;;;;;;;2.67;1.20;;;;;;;7.32;53.16;100985.81;4867863;28;123940;-74
2021/04/05 10:19:06;;;;;;;2.80;0.95;;;;;;;7.35;53.77;100988.38;4861409;28;122800;-73
2021/04/05 10:21:43;;;;;;;5.38;1.00;;;;;;;7.40;53.89;100990.84;4875163;28;114158;-73
2021/04/05 10:24:14;;;;;;;4.78;1.35;;;;;;;7.51;53.98;100990.53;4871870;28;114325;-74
2021/04/05 10:26:42;;;;;;;6.13;1.30;;;;;;;7.61;53.62;100997.28;4855739;28;123437;-73
2021/04/05 10:29:14;;;;;;;3.92;1.30;;;;;;;7.71;53.51;100995.22;4857904;28;124520;-73
2021/04/05 10:31:45;;;;;;;;;;;;;;;7.79;53.48;100998.47;4868929;28;114006;-73
2021/04/05 10:34:13;;;;;;;4.22;1.20;;;;;;;7.88;53.05;100995.56;4875718;28;113434;-72
2021/04/05 10:36:51;;;;;;;3.30;1.25;;;;;;;7.96;52.77;101004.06;4878755;28;125278;-73
2021/04/05 10:39:17;;;;;;;6.00;1.63;;;;;;;8.03;52.36;101009.19;4876115;28;123082;-73
2021/04/05 10:41:53;;;;;;;9.45;1.80;;;;;;;8.10;51.91;101001.03;4884280;28;113559;-72
2021/04/05 10:44:22;;;;;;;9.25;1.98;;;;;;;8.17;51.26;100999.03;4875198;28;115394;-73
2021/04/05 10:46:55;;;;;;;5.95;1.95;;;;;;;8.20;50.95;101001.56;4870513;28;123809;-72
2021/04/05 10:49:27;;;;;;;8.75;1.85;;;;;;;8.25;50.87;100998.78;4867910;28;124658;-71
2021/04/05 10:52:06;;;;;;;8.50;1.60;;;;;;;8.32;50.76;101002.94;4870869;28;114960;-71
2021/04/05 10:54:43;;;;;;;6.20;1.77;;;;;;;8.42;50.65;101008.81;4875261;28;114112;-72
2021/04/05 10:57:13;;;;;;;8.82;1.85;;;;;;;8.51;50.30;101000.56;4883550;28;123674;-72
2021/04/05 10:59:51;;;;;;;8.20;1.80;;;;;;;8.58;50.00;101010.03;4877978;28;124420;-72
2021/04/05 11:02:40;;;;;;;7.77;2.03;;;;;;;8.62;49.63;101030.13;4883562;28;114532;-72
2021/04/05 11:05:10;;;;;;;10.70;2.15;;;;;;;8.57;49.42;101047.91;4872388;28;113925;-72
2021/04/05 11:07:40;;;;;;;13.40;2.60;;;;;;;8.50;49.31;101046.38;4875802;28;123080;-72
2021/04/05 11:10:17;;;;;;;13.25;2.40;;;;;;;8.38;49.29;101048.47;4880410;28;125925;-71
2021/04/05 11:12:49;;;;;;;9.35;1.80;;;;;;;8.31;49.75;101046.94;4866447;28;114672;-72
2021/04/05 11:15:19;;;;;;;12.18;3.03;;;;;;;8.26;49.83;101032.19;4873377;28;114339;-71
2021/04/05 11:17:52;;;;;;;10.57;2.00;;;;;;;8.24;50.08;101047.19;4873247;28;126029;-72
2021/04/05 11:20:21;;;;;;;9.25;2.05;;;;;;;8.27;49.98;101077.00;4872780;28;123822;-71
2021/04/05 11:22:57;;;;;;;11.23;1.80;;;;;;;8.33;49.53;101060.94;4864723;28;112094;-72
2021/04/05 11:25:31;;;;;;;7.13;2.05;;;;;;;8.37;49.01;101052.00;4855559;28;112992;-72
2021/04/05 11:28:07;;;;;;;8.93;2.00;;;;;;;8.45;48.68;101049.16;4864846;28;124227;-73
2021/04/05 11:30:38;;;;;;;7.05;2.00;;;;;;;8.52;48.44;101065.66;4868136;28;123955;-72
2021/04/05 11:33:08;;;;;;;9.25;1.90;;;;;;;8.60;48.80;101063.63;4871084;28;114466;-72
2021/04/05 11:35:37;;;;;;;10.27;2.00;;;;;;;8.73;48.57;101049.09;4884870;28;114146;-73
2021/04/05 11:38:11;;;;;;;6.32;1.90;;;;;;;8.85;47.33;101052.22;4881142;28;124724;-72
2021/04/05 11:40:39;;;;;;;5.70;1.95;;;;;;;8.93;46.15;101052.84;4858759;28;122837;-73
2021/04/05 11:43:14;;;;;;;6.18;1.48;;;;;;;8.97;46.04;101035.97;4875951;28;113743;-72
2021/04/05 11:45:43;;;;;;;7.88;1.70;;;;;;;9.04;45.70;101045.41;4859784;28;113727;-74
2021/04/05 11:48:16;;;;;;;5.72;1.65;;;;;;;9.09;45.05;101040.81;4864107;28;124514;-72
2021/04/05 11:50:43;;;;;;;11.90;1.88;;;;;;;9.18;45.20;101038.78;4869317;28;124053;-73
2021/04/05 11:53:21;;;;;;;8.48;1.90;;;;;;;9.28;45.18;101045.44;4873025;28;114989;-71